Islip, New York
Current Conditions -  °F | °C
As of 10:56 PM on Wednesday 22 Oct 2014 (Local Time) from KISP Reporting Station
Light Rain Light Rain  
Wind Chill: 11°   Ceiling: 1500
Heat Index: 11°   Visibility: 10mi
Dew Point:   Wind: 26mph
Humidity: 86%   Direction: 10°N
Pressure: 29.65"   Gusts: 41mph
Location:  40.73°N, 73.21°W
Report Text: KISP 230256Z 01023G36KT 10SM -RA FEW008 BKN015 OVC026 11/08 A2965 RMK AO2 PK WND 03040/0240 SLP039 P0008 60033 T01060083 58015
Loading
Personal Weather Stations






























Interactive Weather Map
Tropical Storm Tracking
New forecast layout! Learn more

10-Day Weather Forecast

Advertisements
Track Severe Weather on mobile